createdAt,value
2023-04-11T00:00:24.057Z,99.90
2023-04-11T00:03:00.003Z,99.90
2023-04-11T00:05:31.501Z,99.90
2023-04-11T00:08:01.580Z,99.90
2023-04-11T00:10:32.113Z,99.90
2023-04-11T00:13:00.083Z,99.90
2023-04-11T00:15:29.593Z,99.90
2023-04-11T00:17:58.771Z,99.90
2023-04-11T00:20:26.778Z,99.90
2023-04-11T00:22:55.789Z,99.90
2023-04-11T00:25:24.879Z,99.90
2023-04-11T00:27:54.199Z,99.90
2023-04-11T00:30:22.669Z,99.90
2023-04-11T00:32:50.188Z,99.90
2023-04-11T00:35:20.489Z,99.90
2023-04-11T00:37:49.549Z,99.90
2023-04-11T00:40:18.615Z,99.90
2023-04-11T00:42:48.781Z,99.90
2023-04-11T00:45:18.948Z,99.90
2023-04-11T00:47:50.588Z,99.90
2023-04-11T00:50:22.138Z,99.90
2023-04-11T00:52:55.359Z,99.90
2023-04-11T00:55:24.532Z,99.90
2023-04-11T00:57:55.167Z,99.90
2023-04-11T01:00:25.115Z,99.90
2023-04-11T01:02:54.674Z,99.90
2023-04-11T01:05:22.825Z,99.90
2023-04-11T01:07:55.812Z,99.90
2023-04-11T01:10:24.936Z,99.90
2023-04-11T01:12:53.044Z,99.90
2023-04-11T01:15:21.496Z,99.90
2023-04-11T01:17:49.636Z,99.90
2023-04-11T01:20:19.710Z,99.90
2023-04-11T01:22:49.756Z,99.90
2023-04-11T01:25:21.287Z,99.90
2023-04-11T01:27:48.605Z,99.90
2023-04-11T01:30:16.348Z,99.90
2023-04-11T01:32:45.460Z,99.90
2023-04-11T01:35:18.003Z,99.90
2023-04-11T01:37:45.296Z,99.90
2023-04-11T01:40:18.708Z,99.90
2023-04-11T01:42:48.963Z,99.90
2023-04-11T01:45:20.408Z,99.90
2023-04-11T01:47:50.708Z,99.90
2023-04-11T01:50:18.871Z,99.90
2023-04-11T01:52:49.453Z,99.90
2023-04-11T01:55:16.893Z,99.90
2023-04-11T01:57:46.822Z,99.90
2023-04-11T02:00:17.423Z,99.90
2023-04-11T02:02:45.593Z,99.90
2023-04-11T02:05:12.730Z,99.90
2023-04-11T02:07:42.912Z,99.90
2023-04-11T02:10:11.253Z,99.90
2023-04-11T02:12:41.299Z,99.90
2023-04-11T02:15:09.550Z,99.90
2023-04-11T02:17:45.181Z,99.90
2023-04-11T02:20:14.509Z,99.90
2023-04-11T02:22:47.885Z,99.90
2023-04-11T02:25:14.822Z,99.90
2023-04-11T02:27:44.852Z,99.90
2023-04-11T02:30:14.941Z,99.90
2023-04-11T02:32:44.022Z,99.90
2023-04-11T02:35:13.077Z,99.90
2023-04-11T02:37:39.951Z,99.90
2023-04-11T02:40:08.176Z,99.90
2023-04-11T02:42:35.328Z,99.90
2023-04-11T02:45:04.673Z,99.90
2023-04-11T02:47:34.749Z,99.90
2023-04-11T02:50:03.819Z,99.90
2023-04-11T02:52:30.727Z,99.90
2023-04-11T02:54:57.606Z,99.90
2023-04-11T02:57:24.731Z,99.90
2023-04-11T02:59:52.724Z,99.90
2023-04-11T03:02:26.227Z,99.90
2023-04-11T03:04:53.357Z,99.90
2023-04-11T03:07:20.357Z,99.90
2023-04-11T03:09:47.384Z,99.90
2023-04-11T03:12:16.180Z,99.90
2023-04-11T03:14:43.065Z,99.90
2023-04-11T03:17:11.192Z,99.90
2023-04-11T03:19:38.149Z,99.90
2023-04-11T03:22:05.714Z,99.90
2023-04-11T03:24:32.864Z,99.90
2023-04-11T03:26:59.813Z,99.90
2023-04-11T03:29:29.827Z,99.90
2023-04-11T03:31:56.825Z,99.90
2023-04-11T03:34:26.200Z,99.90
2023-04-11T03:36:53.625Z,99.90
2023-04-11T03:39:24.437Z,99.90
2023-04-11T03:41:53.467Z,99.90
2023-04-11T03:44:22.408Z,99.90
2023-04-11T03:46:55.643Z,99.90
2023-04-11T03:49:25.770Z,99.90
2023-04-11T03:51:56.241Z,99.90
2023-04-11T03:54:29.094Z,99.90
2023-04-11T03:56:58.242Z,99.90
2023-04-11T03:59:25.189Z,99.90
2023-04-11T04:01:52.175Z,99.90
2023-04-11T04:04:21.347Z,99.90
2023-04-11T04:07:01.878Z,99.90
2023-04-11T04:09:28.892Z,99.90
2023-04-11T04:11:58.953Z,99.90
2023-04-11T04:14:28.930Z,99.90
2023-04-11T04:16:56.002Z,99.90
2023-04-11T04:19:26.420Z,99.90
2023-04-11T04:21:58.260Z,99.90
2023-04-11T04:24:30.037Z,99.90
2023-04-11T04:27:01.316Z,99.90
2023-04-11T04:29:34.396Z,99.90
2023-04-11T04:32:03.349Z,99.90
2023-04-11T04:34:33.435Z,99.90
2023-04-11T04:37:03.505Z,99.90
2023-04-11T04:39:34.238Z,99.90
2023-04-11T04:42:04.315Z,99.90
2023-04-11T04:44:37.558Z,99.90
2023-04-11T04:47:07.591Z,99.90
2023-04-11T04:49:37.559Z,99.90
2023-04-11T04:52:05.048Z,99.90
2023-04-11T04:54:34.094Z,99.90
2023-04-11T04:57:03.041Z,99.90
2023-04-11T04:59:33.078Z,99.90
2023-04-11T05:02:03.473Z,99.90
2023-04-11T05:04:34.342Z,99.90
2023-04-11T05:07:04.304Z,99.90
2023-04-11T05:09:33.211Z,99.90
2023-04-11T05:12:01.551Z,99.90
2023-04-11T05:14:29.520Z,99.90
2023-04-11T05:16:56.515Z,99.90
2023-04-11T05:19:26.576Z,99.90
2023-04-11T05:21:54.784Z,99.90
2023-04-11T05:24:22.066Z,99.90
2023-04-11T05:26:49.026Z,99.90
2023-04-11T05:29:19.061Z,99.90
2023-04-11T05:31:47.007Z,99.90
2023-04-11T05:34:14.969Z,99.90
2023-04-11T05:36:47.876Z,99.90
2023-04-11T05:39:14.912Z,99.90
2023-04-11T05:41:44.958Z,99.90
2023-04-11T05:44:11.986Z,99.90
2023-04-11T05:46:39.198Z,99.90
2023-04-11T05:49:06.379Z,99.90
2023-04-11T05:51:34.657Z,99.90
2023-04-11T05:54:03.624Z,99.90
2023-04-11T05:56:33.763Z,99.90
2023-04-11T05:59:04.178Z,99.90
2023-04-11T06:01:34.845Z,99.90
2023-04-11T06:04:03.167Z,99.90
2023-04-11T06:06:31.621Z,99.90
2023-04-11T06:09:01.713Z,99.90
2023-04-11T06:11:31.715Z,99.90
2023-04-11T06:14:00.920Z,99.90
2023-04-11T06:16:27.983Z,99.90
2023-04-11T06:18:58.089Z,99.90
2023-04-11T06:21:26.469Z,99.90
2023-04-11T06:23:53.506Z,99.90
2023-04-11T06:26:22.534Z,99.90
2023-04-11T06:28:51.302Z,99.90
2023-04-11T06:31:19.277Z,99.90
2023-04-11T06:33:47.247Z,99.90
2023-04-11T06:36:16.227Z,99.90
2023-04-11T06:38:46.170Z,99.90
2023-04-11T06:41:16.253Z,99.90
2023-04-11T06:43:44.195Z,99.90
2023-04-11T06:46:12.504Z,99.90
2023-04-11T06:48:39.652Z,99.90
2023-04-11T06:51:10.503Z,99.90
2023-04-11T06:53:40.642Z,99.90
2023-04-11T06:56:08.164Z,99.90
2023-04-11T06:58:35.152Z,99.90
2023-04-11T07:01:02.190Z,99.90
2023-04-11T07:03:31.098Z,99.90
2023-04-11T07:06:02.068Z,99.90
2023-04-11T07:08:32.087Z,99.90
2023-04-11T07:11:00.054Z,99.90
2023-04-11T07:13:30.013Z,99.90
2023-04-11T07:15:57.002Z,99.90
2023-04-11T07:18:23.934Z,99.90
2023-04-11T07:20:53.990Z,99.90
2023-04-11T07:23:23.578Z,99.90
2023-04-11T07:25:50.751Z,99.90
2023-04-11T07:28:21.511Z,99.90
2023-04-11T07:30:49.635Z,99.90
2023-04-11T07:33:17.584Z,99.90
2023-04-11T07:35:44.598Z,99.90
2023-04-11T07:38:12.924Z,99.90
2023-04-11T07:40:41.818Z,99.90
2023-04-11T07:43:09.779Z,99.90
2023-04-11T07:45:37.208Z,99.90
2023-04-11T07:48:05.332Z,99.90
2023-04-11T07:50:33.209Z,99.90
2023-04-11T07:53:03.455Z,99.90
2023-04-11T07:55:31.255Z,99.90
2023-04-11T07:57:58.171Z,99.90
2023-04-11T08:00:28.874Z,99.90
2023-04-11T08:03:03.597Z,99.90
2023-04-11T08:05:35.511Z,99.90
2023-04-11T08:08:06.189Z,99.90
2023-04-11T08:10:36.209Z,99.90
2023-04-11T08:13:06.405Z,99.90
2023-04-11T08:15:36.948Z,99.90
2023-04-11T08:18:07.045Z,99.90
2023-04-11T08:20:37.090Z,99.90
2023-04-11T08:23:08.872Z,99.90
2023-04-11T08:25:39.171Z,99.90
2023-04-11T08:28:09.932Z,99.90
2023-04-11T08:30:39.957Z,99.90
2023-04-11T08:33:09.399Z,99.90
2023-04-11T08:35:43.015Z,99.90
2023-04-11T08:38:13.002Z,99.90
2023-04-11T08:40:39.961Z,99.90
2023-04-11T08:43:12.335Z,99.70
2023-04-11T08:45:43.680Z,99.10
2023-04-11T08:48:12.495Z,98.90
2023-04-11T08:50:42.487Z,98.70
2023-04-11T08:53:12.396Z,98.90
2023-04-11T08:55:47.117Z,98.60
2023-04-11T08:58:14.662Z,98.70
2023-04-11T09:00:41.694Z,97.20
2023-04-11T09:03:11.724Z,97.60
2023-04-11T09:05:47.120Z,97.10
2023-04-11T09:08:16.174Z,96.60
2023-04-11T09:10:48.242Z,96.80
2023-04-11T09:13:20.749Z,96.00
2023-04-11T09:16:07.619Z,96.30
2023-04-11T09:18:43.628Z,95.80
2023-04-11T09:21:17.076Z,95.70
2023-04-11T09:23:47.162Z,96.20
2023-04-11T09:26:29.717Z,95.80
2023-04-11T09:28:57.190Z,96.20
2023-04-11T09:31:43.976Z,95.70
2023-04-11T09:34:13.606Z,95.50
2023-04-11T09:36:40.706Z,95.20
2023-04-11T09:39:22.066Z,95.00
2023-04-11T09:41:51.116Z,94.50
2023-04-11T09:44:20.054Z,94.10
2023-04-11T09:47:00.223Z,94.30
2023-04-11T09:49:29.619Z,94.50
2023-04-11T09:52:00.858Z,93.90
2023-04-11T09:54:32.108Z,93.50
2023-04-11T09:57:00.202Z,92.90
2023-04-11T09:59:30.436Z,92.50
2023-04-11T10:02:04.365Z,91.50
2023-04-11T10:04:34.752Z,91.80
2023-04-11T10:07:17.103Z,91.20
2023-04-11T10:09:46.055Z,90.50
2023-04-11T10:12:29.795Z,89.70
2023-04-11T10:15:05.760Z,90.20
2023-04-11T10:17:34.122Z,90.40
2023-04-11T10:20:01.196Z,90.50
2023-04-11T10:22:59.125Z,88.60
2023-04-11T10:25:28.471Z,87.80
2023-04-11T10:28:01.217Z,87.70
2023-04-11T10:31:05.902Z,86.70
2023-04-11T10:33:36.110Z,86.50
2023-04-11T10:36:11.249Z,86.00
2023-04-11T10:38:48.629Z,87.00
2023-04-11T10:41:28.802Z,87.60
2023-04-11T10:44:20.919Z,85.70
2023-04-11T10:46:53.786Z,86.20
2023-04-11T10:49:47.580Z,85.80
2023-04-11T10:52:24.309Z,85.80
2023-04-11T10:54:54.719Z,85.90
2023-04-11T10:57:23.176Z,87.30
2023-04-11T10:59:51.315Z,87.30
2023-04-11T11:02:22.052Z,87.80
2023-04-11T11:04:53.023Z,88.70
2023-04-11T11:07:22.133Z,88.50
2023-04-11T11:09:51.298Z,88.90
2023-04-11T11:12:18.606Z,88.50
2023-04-11T11:14:51.639Z,87.10
2023-04-11T11:17:23.808Z,87.80
2023-04-11T11:19:53.877Z,87.20
2023-04-11T11:22:26.067Z,86.80
2023-04-11T11:25:08.711Z,88.00
2023-04-11T11:27:57.779Z,87.60
2023-04-11T11:30:28.195Z,88.70
2023-04-11T11:32:56.863Z,90.00
2023-04-11T11:35:26.389Z,90.30
2023-04-11T11:37:55.469Z,90.10
2023-04-11T11:40:25.520Z,87.70
2023-04-11T11:42:52.738Z,86.50
2023-04-11T11:45:21.835Z,86.40
2023-04-11T11:47:50.578Z,86.50
2023-04-11T11:50:32.387Z,86.10
2023-04-11T11:53:16.106Z,86.70
2023-04-11T11:55:43.551Z,85.40
2023-04-11T11:58:19.056Z,86.90
2023-04-11T12:00:51.388Z,87.60
2023-04-11T12:03:24.492Z,88.10
2023-04-11T12:05:57.987Z,88.70
2023-04-11T12:08:33.142Z,89.20
2023-04-11T12:11:12.583Z,88.90
2023-04-11T12:13:41.757Z,84.30
2023-04-11T12:16:09.813Z,83.60
2023-04-11T12:18:41.522Z,83.50
2023-04-11T12:21:11.671Z,84.00
2023-04-11T12:23:40.900Z,84.80
2023-04-11T12:26:07.919Z,85.50
2023-04-11T12:28:36.917Z,85.90
2023-04-11T12:31:06.955Z,86.20
2023-04-11T12:33:34.946Z,85.80
2023-04-11T12:36:08.058Z,86.40
2023-04-11T12:38:35.114Z,87.30
2023-04-11T12:41:29.545Z,87.20
2023-04-11T12:43:49.347Z,86.70
2023-04-11T12:46:17.351Z,87.10
2023-04-11T12:48:44.311Z,85.90
2023-04-11T12:51:14.388Z,86.00
2023-04-11T12:53:42.470Z,86.50
2023-04-11T12:56:09.515Z,86.70
2023-04-11T12:58:37.486Z,85.80
2023-04-11T13:01:05.944Z,86.10
2023-04-11T13:03:33.446Z,86.20
2023-04-11T13:06:00.830Z,87.50
2023-04-11T13:08:31.081Z,87.70
2023-04-11T13:11:07.593Z,87.00
2023-04-11T13:13:37.602Z,87.60
2023-04-11T13:16:08.602Z,87.90
2023-04-11T13:18:38.701Z,87.70
2023-04-11T13:21:08.730Z,86.80
2023-04-11T13:23:36.155Z,86.80
2023-04-11T13:26:03.115Z,86.90
2023-04-11T13:28:34.909Z,86.40
2023-04-11T13:31:05.678Z,86.30
2023-04-11T13:33:32.759Z,87.00
2023-04-11T13:36:00.896Z,86.60
2023-04-11T13:38:30.906Z,86.50
2023-04-11T13:41:01.123Z,86.80
2023-04-11T13:43:31.406Z,86.90
2023-04-11T13:45:58.439Z,86.80
2023-04-11T13:48:28.405Z,87.20
2023-04-11T13:50:58.465Z,88.20
2023-04-11T13:53:28.586Z,88.40
2023-04-11T13:55:56.869Z,87.10
2023-04-11T13:58:26.864Z,87.20
2023-04-11T14:00:53.851Z,87.50
2023-04-11T14:03:20.871Z,88.50
2023-04-11T14:05:47.856Z,89.20
2023-04-11T14:08:14.809Z,89.90
2023-04-11T14:10:44.713Z,90.30
2023-04-11T14:13:11.784Z,90.20
2023-04-11T14:15:41.148Z,90.30
2023-04-11T14:18:08.193Z,90.50
2023-04-11T14:20:37.354Z,91.10
2023-04-11T14:23:04.693Z,91.10
2023-04-11T14:25:31.689Z,91.50
2023-04-11T14:27:59.673Z,91.60
2023-04-11T14:30:30.011Z,91.80
2023-04-11T14:33:03.075Z,92.00
2023-04-11T14:35:33.086Z,92.50
2023-04-11T14:38:03.634Z,92.50
2023-04-11T14:40:33.652Z,92.50
2023-04-11T14:43:00.715Z,92.70
2023-04-11T14:45:27.805Z,92.80
2023-04-11T14:47:54.923Z,92.80
2023-04-11T14:50:21.950Z,92.60
2023-04-11T14:52:49.430Z,92.00
2023-04-11T14:55:16.759Z,92.40
2023-04-11T14:57:48.861Z,92.10
2023-04-11T15:00:19.811Z,91.50
2023-04-11T15:02:49.831Z,91.40
2023-04-11T15:05:18.278Z,91.30
2023-04-11T15:07:48.035Z,91.40
2023-04-11T15:10:20.489Z,91.70
2023-04-11T15:12:50.797Z,92.20
2023-04-11T15:15:18.949Z,91.90
2023-04-11T15:18:10.501Z,91.30
2023-04-11T15:20:43.566Z,91.10
2023-04-11T15:23:12.550Z,91.40
2023-04-11T15:25:42.508Z,91.30
2023-04-11T15:28:11.218Z,91.50
2023-04-11T15:30:49.816Z,91.70
2023-04-11T15:33:18.135Z,92.10
2023-04-11T15:35:46.491Z,92.40
2023-04-11T15:38:18.276Z,92.40
2023-04-11T15:40:56.406Z,92.80
2023-04-11T15:43:27.200Z,93.30
2023-04-11T15:45:57.209Z,93.50
2023-04-11T15:48:27.171Z,92.70
2023-04-11T15:50:54.218Z,92.60
2023-04-11T15:53:21.221Z,92.80
2023-04-11T15:55:49.319Z,93.10
2023-04-11T15:58:16.445Z,93.00
2023-04-11T16:00:44.848Z,93.20
2023-04-11T16:03:13.683Z,93.40
2023-04-11T16:05:50.909Z,93.30
2023-04-11T16:08:19.839Z,93.50
2023-04-11T16:10:47.695Z,93.80
2023-04-11T16:13:15.777Z,94.10
2023-04-11T16:15:42.637Z,94.30
2023-04-11T16:18:12.795Z,94.50
2023-04-11T16:20:42.829Z,94.70
2023-04-11T16:23:11.004Z,94.60
2023-04-11T16:25:39.934Z,94.90
2023-04-11T16:28:09.041Z,95.10
2023-04-11T16:30:39.018Z,95.30
2023-04-11T16:33:09.034Z,95.50
2023-04-11T16:35:37.010Z,95.80
2023-04-11T16:38:05.245Z,96.00
2023-04-11T16:40:35.224Z,96.20
2023-04-11T16:43:02.240Z,96.60
2023-04-11T16:45:33.132Z,96.80
2023-04-11T16:48:02.212Z,97.00
2023-04-11T16:50:31.271Z,97.10
2023-04-11T16:52:58.157Z,97.30
2023-04-11T16:55:27.135Z,97.50
2023-04-11T16:57:56.056Z,97.60
2023-04-11T17:00:26.205Z,97.70
2023-04-11T17:02:56.372Z,97.90
2023-04-11T17:05:25.547Z,98.10
2023-04-11T17:07:52.508Z,98.10
2023-04-11T17:10:21.940Z,98.30
2023-04-11T17:12:49.959Z,98.40
2023-04-11T17:15:20.077Z,98.60
2023-04-11T17:17:49.032Z,98.80
2023-04-11T17:20:18.070Z,98.90
2023-04-11T17:22:48.114Z,99.00
2023-04-11T17:25:18.358Z,98.90
2023-04-11T17:27:48.714Z,98.80
2023-04-11T17:30:16.412Z,98.80
2023-04-11T17:32:43.752Z,99.00
2023-04-11T17:35:11.445Z,99.20
2023-04-11T17:37:41.553Z,99.30
2023-04-11T17:40:12.972Z,99.40
2023-04-11T17:42:40.961Z,99.50
2023-04-11T17:45:17.772Z,99.50
2023-04-11T17:47:52.148Z,99.40
2023-04-11T17:50:20.165Z,99.70
2023-04-11T17:52:49.271Z,99.80
2023-04-11T17:55:17.647Z,99.90
2023-04-11T17:57:50.456Z,99.90
2023-04-11T18:00:23.698Z,99.90
2023-04-11T18:02:54.643Z,99.90
2023-04-11T18:05:29.292Z,99.90
2023-04-11T18:07:58.289Z,99.90
2023-04-11T18:10:27.392Z,99.90
2023-04-11T18:12:57.541Z,99.90
2023-04-11T18:15:25.600Z,99.90
2023-04-11T18:17:53.341Z,99.90
2023-04-11T18:20:20.694Z,99.90
2023-04-11T18:22:56.173Z,99.90
2023-04-11T18:25:26.545Z,99.90
2023-04-11T18:27:55.654Z,99.90
2023-04-11T18:30:23.665Z,99.90
2023-04-11T18:32:54.207Z,99.90
2023-04-11T18:35:24.261Z,99.90
2023-04-11T18:37:53.410Z,99.90
2023-04-11T18:40:22.436Z,99.90
2023-04-11T18:42:53.453Z,99.90
2023-04-11T18:45:24.350Z,99.90
2023-04-11T18:47:57.735Z,99.90
2023-04-11T18:50:24.832Z,99.90
2023-04-11T18:52:54.995Z,99.90
2023-04-11T18:55:24.219Z,99.90
2023-04-11T18:57:56.279Z,99.90
2023-04-11T19:00:26.129Z,99.90
2023-04-11T19:02:56.573Z,99.90
2023-04-11T19:05:25.545Z,99.90
2023-04-11T19:07:56.160Z,99.90
2023-04-11T19:10:26.176Z,99.90
2023-04-11T19:12:59.161Z,99.90
2023-04-11T19:15:29.077Z,99.90
2023-04-11T19:17:57.589Z,99.90
2023-04-11T19:20:26.790Z,99.90
2023-04-11T19:22:57.229Z,99.90
2023-04-11T19:25:27.498Z,99.90
2023-04-11T19:27:57.553Z,99.90
2023-04-11T19:30:24.607Z,99.90
2023-04-11T19:32:52.664Z,99.90
2023-04-11T19:35:24.292Z,99.90
2023-04-11T19:37:51.458Z,99.90
2023-04-11T19:40:18.864Z,99.90
2023-04-11T19:42:49.028Z,99.90
2023-04-11T19:45:16.040Z,99.90
2023-04-11T19:47:43.104Z,99.90
2023-04-11T19:50:13.496Z,99.90
2023-04-11T19:52:43.933Z,99.90
2023-04-11T19:55:12.694Z,99.90
2023-04-11T19:57:43.793Z,99.90
2023-04-11T20:00:13.804Z,99.90
2023-04-11T20:02:47.270Z,99.90
2023-04-11T20:05:22.234Z,99.90
2023-04-11T20:07:52.272Z,99.90
2023-04-11T20:10:23.273Z,99.90
2023-04-11T20:12:53.304Z,99.90
2023-04-11T20:15:21.300Z,99.90
2023-04-11T20:17:48.445Z,99.90
2023-04-11T20:20:15.871Z,99.90
2023-04-11T20:22:45.985Z,99.90
2023-04-11T20:25:14.260Z,99.90
2023-04-11T20:27:43.274Z,99.90
2023-04-11T20:30:14.357Z,99.90
2023-04-11T20:32:44.385Z,99.90
2023-04-11T20:35:19.346Z,99.90
2023-04-11T20:37:49.904Z,99.90
2023-04-11T20:40:20.084Z,99.90
2023-04-11T20:42:49.682Z,99.90
2023-04-11T20:45:22.094Z,99.90
2023-04-11T20:47:53.028Z,99.90
2023-04-11T20:50:23.230Z,99.90
2023-04-11T20:52:56.128Z,99.90
2023-04-11T20:55:25.244Z,99.90
2023-04-11T20:57:55.254Z,99.90
2023-04-11T21:00:24.853Z,99.90
2023-04-11T21:02:54.428Z,99.90
2023-04-11T21:05:22.631Z,99.90
2023-04-11T21:07:54.437Z,99.90
2023-04-11T21:10:21.657Z,99.90
2023-04-11T21:12:54.360Z,99.90
2023-04-11T21:15:22.672Z,99.90
2023-04-11T21:17:52.382Z,99.90
2023-04-11T21:20:22.352Z,99.90
2023-04-11T21:22:54.154Z,99.90
2023-04-11T21:25:23.396Z,99.90
2023-04-11T21:27:53.418Z,99.90
2023-04-11T21:30:21.557Z,99.90
2023-04-11T21:32:48.559Z,99.90
2023-04-11T21:35:16.573Z,99.90
2023-04-11T21:37:43.604Z,99.90
2023-04-11T21:40:11.006Z,99.90
2023-04-11T21:42:41.328Z,99.90
2023-04-11T21:45:14.459Z,99.90
2023-04-11T21:47:44.664Z,99.90
2023-04-11T21:50:12.259Z,99.90
2023-04-11T21:52:39.274Z,99.90
2023-04-11T21:55:09.127Z,99.90
2023-04-11T21:57:37.488Z,99.90
2023-04-11T22:00:06.227Z,99.90
2023-04-11T22:02:33.224Z,99.90
2023-04-11T22:05:06.560Z,99.90
2023-04-11T22:07:47.702Z,99.90
2023-04-11T22:10:15.937Z,99.90
2023-04-11T22:12:45.680Z,99.90
2023-04-11T22:15:13.093Z,99.90
2023-04-11T22:17:42.434Z,99.90
2023-04-11T22:20:11.315Z,99.90
2023-04-11T22:22:38.929Z,99.90
2023-04-11T22:25:07.043Z,99.90
2023-04-11T22:27:36.002Z,99.90
2023-04-11T22:30:03.601Z,99.90
2023-04-11T22:32:30.631Z,99.90
2023-04-11T22:34:59.905Z,99.90
2023-04-11T22:37:30.114Z,99.90
2023-04-11T22:39:58.080Z,99.90
2023-04-11T22:42:25.992Z,99.90
2023-04-11T22:44:53.913Z,99.90
2023-04-11T22:47:22.936Z,99.90
2023-04-11T22:49:51.957Z,99.90
2023-04-11T22:52:26.312Z,99.90
2023-04-11T22:54:56.972Z,99.90
2023-04-11T22:57:23.820Z,99.90
2023-04-11T22:59:53.850Z,99.90
2023-04-11T23:02:20.735Z,99.90
2023-04-11T23:04:51.098Z,99.90
2023-04-11T23:07:19.169Z,99.90
2023-04-11T23:09:49.167Z,99.90
2023-04-11T23:12:18.810Z,99.90
2023-04-11T23:14:50.486Z,99.90
2023-04-11T23:17:20.451Z,99.90
2023-04-11T23:19:51.298Z,99.90
2023-04-11T23:22:20.386Z,99.90
2023-04-11T23:24:55.370Z,99.90
2023-04-11T23:27:25.445Z,99.90
2023-04-11T23:29:54.403Z,99.90
2023-04-11T23:32:27.607Z,99.90
2023-04-11T23:34:57.013Z,99.90
2023-04-11T23:37:27.496Z,99.90
2023-04-11T23:39:59.288Z,99.90
2023-04-11T23:42:28.302Z,99.90
2023-04-11T23:44:57.242Z,99.90
2023-04-11T23:47:27.846Z,99.90
2023-04-11T23:49:57.885Z,99.90
2023-04-11T23:52:28.758Z,99.90
2023-04-11T23:54:59.053Z,99.90
2023-04-11T23:57:25.996Z,99.90
2023-04-11T23:59:53.056Z,99.90
